sensor_id;sensor_type;location;lat;lon;timestamp;pressure;altitude;pressure_sealevel;temperature;humidity
22647;BME280;11490;42.726;23.268;2023-04-04T00:01:50;93795.63;;;8.67;100.00
22647;BME280;11490;42.726;23.268;2023-04-04T00:04:16;93797.25;;;8.68;100.00
22647;BME280;11490;42.726;23.268;2023-04-04T00:06:41;93795.69;;;8.77;100.00
22647;BME280;11490;42.726;23.268;2023-04-04T00:09:12;93794.28;;;8.60;100.00
22647;BME280;11490;42.726;23.268;2023-04-04T00:11:39;93789.56;;;8.67;100.00
22647;BME280;11490;42.726;23.268;2023-04-04T00:14:06;93792.97;;;8.62;100.00
22647;BME280;11490;42.726;23.268;2023-04-04T00:16:31;93791.19;;;8.83;100.00
22647;BME280;11490;42.726;23.268;2023-04-04T00:18:57;93788.19;;;8.59;100.00
22647;BME280;11490;42.726;23.268;2023-04-04T00:21:22;93794.00;;;8.56;100.00
22647;BME280;11490;42.726;23.268;2023-04-04T00:23:49;93792.91;;;8.52;100.00
22647;BME280;11490;42.726;23.268;2023-04-04T00:26:14;93784.53;;;8.23;100.00
22647;BME280;11490;42.726;23.268;2023-04-04T00:28:41;93783.31;;;8.36;100.00
22647;BME280;11490;42.726;23.268;2023-04-04T00:31:07;93772.72;;;8.46;100.00
22647;BME280;11490;42.726;23.268;2023-04-04T00:33:32;93770.84;;;8.46;100.00
22647;BME280;11490;42.726;23.268;2023-04-04T00:35:57;93777.03;;;8.62;100.00
22647;BME280;11490;42.726;23.268;2023-04-04T00:38:23;93768.31;;;8.77;100.00
22647;BME280;11490;42.726;23.268;2023-04-04T00:40:49;93772.34;;;8.90;100.00
22647;BME280;11490;42.726;23.268;2023-04-04T00:43:16;93763.69;;;8.47;100.00
22647;BME280;11490;42.726;23.268;2023-04-04T00:45:42;93761.69;;;8.79;100.00
22647;BME280;11490;42.726;23.268;2023-04-04T00:48:08;93762.72;;;8.83;100.00
22647;BME280;11490;42.726;23.268;2023-04-04T00:50:33;93764.34;;;8.84;100.00
22647;BME280;11490;42.726;23.268;2023-04-04T00:52:59;93760.59;;;8.75;100.00
22647;BME280;11490;42.726;23.268;2023-04-04T00:55:24;93754.22;;;8.71;100.00
22647;BME280;11490;42.726;23.268;2023-04-04T00:57:50;93740.81;;;8.46;100.00
22647;BME280;11490;42.726;23.268;2023-04-04T01:00:16;93741.31;;;8.33;100.00
22647;BME280;11490;42.726;23.268;2023-04-04T01:02:42;93758.69;;;8.56;100.00
22647;BME280;11490;42.726;23.268;2023-04-04T01:05:08;93761.13;;;8.77;100.00
22647;BME280;11490;42.726;23.268;2023-04-04T01:07:34;93760.63;;;8.80;100.00
22647;BME280;11490;42.726;23.268;2023-04-04T01:10:00;93767.53;;;8.86;100.00
22647;BME280;11490;42.726;23.268;2023-04-04T01:12:28;93764.88;;;8.92;100.00
22647;BME280;11490;42.726;23.268;2023-04-04T01:14:53;93772.09;;;9.01;100.00
22647;BME280;11490;42.726;23.268;2023-04-04T01:17:19;93784.63;;;9.11;100.00
22647;BME280;11490;42.726;23.268;2023-04-04T01:19:52;93779.81;;;9.08;100.00
22647;BME280;11490;42.726;23.268;2023-04-04T01:22:21;93784.34;;;9.17;100.00
22647;BME280;11490;42.726;23.268;2023-04-04T01:24:48;93780.34;;;9.15;100.00
22647;BME280;11490;42.726;23.268;2023-04-04T01:27:13;93785.69;;;9.20;100.00
22647;BME280;11490;42.726;23.268;2023-04-04T01:29:40;93792.09;;;9.19;100.00
22647;BME280;11490;42.726;23.268;2023-04-04T01:32:12;93781.44;;;9.19;100.00
22647;BME280;11490;42.726;23.268;2023-04-04T01:37:35;93780.03;;;8.91;100.00
22647;BME280;11490;42.726;23.268;2023-04-04T01:40:16;93777.69;;;9.05;100.00
22647;BME280;11490;42.726;23.268;2023-04-04T01:42:43;93758.75;;;8.91;100.00
22647;BME280;11490;42.726;23.268;2023-04-04T01:45:09;93762.44;;;8.70;100.00
22647;BME280;11490;42.726;23.268;2023-04-04T01:47:41;93762.50;;;8.90;100.00
22647;BME280;11490;42.726;23.268;2023-04-04T01:50:08;93759.84;;;8.95;100.00
22647;BME280;11490;42.726;23.268;2023-04-04T01:52:34;93748.41;;;8.90;100.00
22647;BME280;11490;42.726;23.268;2023-04-04T01:55:00;93739.38;;;8.96;100.00
22647;BME280;11490;42.726;23.268;2023-04-04T01:57:27;93739.91;;;8.82;100.00
22647;BME280;11490;42.726;23.268;2023-04-04T01:59:52;93736.69;;;8.80;100.00
22647;BME280;11490;42.726;23.268;2023-04-04T02:02:17;93723.47;;;9.06;100.00
22647;BME280;11490;42.726;23.268;2023-04-04T02:04:43;93730.34;;;9.07;100.00
22647;BME280;11490;42.726;23.268;2023-04-04T02:07:08;93723.91;;;8.77;100.00
22647;BME280;11490;42.726;23.268;2023-04-04T02:09:33;93727.34;;;8.68;100.00
22647;BME280;11490;42.726;23.268;2023-04-04T02:11:59;93729.72;;;8.59;100.00
22647;BME280;11490;42.726;23.268;2023-04-04T02:14:25;93731.38;;;8.80;100.00
22647;BME280;11490;42.726;23.268;2023-04-04T02:16:50;93725.44;;;8.53;100.00
22647;BME280;11490;42.726;23.268;2023-04-04T02:19:15;93740.88;;;8.56;100.00
22647;BME280;11490;42.726;23.268;2023-04-04T02:21:41;93735.59;;;8.66;100.00
22647;BME280;11490;42.726;23.268;2023-04-04T02:24:06;93720.16;;;8.63;100.00
22647;BME280;11490;42.726;23.268;2023-04-04T02:26:32;93720.72;;;8.70;100.00
22647;BME280;11490;42.726;23.268;2023-04-04T02:28:57;93729.25;;;8.82;100.00
22647;BME280;11490;42.726;23.268;2023-04-04T02:31:22;93727.09;;;8.69;100.00
22647;BME280;11490;42.726;23.268;2023-04-04T02:33:48;93729.16;;;8.52;100.00
22647;BME280;11490;42.726;23.268;2023-04-04T02:36:13;93721.78;;;8.64;100.00
22647;BME280;11490;42.726;23.268;2023-04-04T02:38:38;93721.78;;;8.64;100.00
22647;BME280;11490;42.726;23.268;2023-04-04T02:41:04;93715.81;;;8.32;100.00
22647;BME280;11490;42.726;23.268;2023-04-04T02:43:29;93726.91;;;8.24;100.00
22647;BME280;11490;42.726;23.268;2023-04-04T02:45:54;93723.28;;;8.45;100.00
22647;BME280;11490;42.726;23.268;2023-04-04T02:48:20;93716.13;;;8.40;100.00
22647;BME280;11490;42.726;23.268;2023-04-04T02:50:45;93729.69;;;8.54;100.00
22647;BME280;11490;42.726;23.268;2023-04-04T02:53:12;93737.41;;;8.51;100.00
22647;BME280;11490;42.726;23.268;2023-04-04T02:55:37;93736.38;;;8.57;100.00
22647;BME280;11490;42.726;23.268;2023-04-04T02:58:03;93736.59;;;8.50;100.00
22647;BME280;11490;42.726;23.268;2023-04-04T03:00:28;93738.56;;;8.18;100.00
22647;BME280;11490;42.726;23.268;2023-04-04T03:02:54;93747.97;;;8.35;100.00
22647;BME280;11490;42.726;23.268;2023-04-04T03:05:20;93748.31;;;8.54;100.00
22647;BME280;11490;42.726;23.268;2023-04-04T03:07:45;93745.69;;;8.64;100.00
22647;BME280;11490;42.726;23.268;2023-04-04T03:10:11;93742.53;;;8.77;100.00
22647;BME280;11490;42.726;23.268;2023-04-04T03:12:36;93751.03;;;8.84;100.00
22647;BME280;11490;42.726;23.268;2023-04-04T03:15:02;93751.06;;;8.90;100.00
22647;BME280;11490;42.726;23.268;2023-04-04T03:17:28;93755.06;;;8.92;100.00
22647;BME280;11490;42.726;23.268;2023-04-04T03:19:54;93761.41;;;8.81;100.00
22647;BME280;11490;42.726;23.268;2023-04-04T03:22:19;93764.88;;;8.86;100.00
22647;BME280;11490;42.726;23.268;2023-04-04T03:24:45;93754.25;;;8.92;100.00
22647;BME280;11490;42.726;23.268;2023-04-04T03:27:10;93748.44;;;9.15;100.00
22647;BME280;11490;42.726;23.268;2023-04-04T03:29:35;93742.06;;;9.16;100.00
22647;BME280;11490;42.726;23.268;2023-04-04T03:32:01;93741.03;;;9.27;100.00
22647;BME280;11490;42.726;23.268;2023-04-04T03:34:27;93747.41;;;9.21;100.00
22647;BME280;11490;42.726;23.268;2023-04-04T03:36:52;93742.84;;;9.06;100.00
22647;BME280;11490;42.726;23.268;2023-04-04T03:39:18;93752.69;;;9.01;100.00
22647;BME280;11490;42.726;23.268;2023-04-04T03:41:43;93747.88;;;8.87;100.00
22647;BME280;11490;42.726;23.268;2023-04-04T03:44:09;93756.41;;;9.10;100.00
22647;BME280;11490;42.726;23.268;2023-04-04T03:46:34;93744.16;;;8.88;100.00
22647;BME280;11490;42.726;23.268;2023-04-04T03:48:59;93755.84;;;8.93;100.00
22647;BME280;11490;42.726;23.268;2023-04-04T03:51:25;93755.91;;;9.13;100.00
22647;BME280;11490;42.726;23.268;2023-04-04T03:53:54;93757.50;;;9.24;100.00
22647;BME280;11490;42.726;23.268;2023-04-04T03:56:20;93753.75;;;9.15;100.00
22647;BME280;11490;42.726;23.268;2023-04-04T03:58:46;93751.09;;;9.10;100.00
22647;BME280;11490;42.726;23.268;2023-04-04T04:01:11;93757.25;;;9.20;100.00
22647;BME280;11490;42.726;23.268;2023-04-04T04:03:37;93745.78;;;9.05;100.00
22647;BME280;11490;42.726;23.268;2023-04-04T04:06:02;93751.63;;;9.07;100.00
22647;BME280;11490;42.726;23.268;2023-04-04T04:08:27;93755.34;;;9.01;100.00
22647;BME280;11490;42.726;23.268;2023-04-04T04:10:53;93754.00;;;8.98;100.00
22647;BME280;11490;42.726;23.268;2023-04-04T04:13:19;93750.81;;;9.06;100.00
22647;BME280;11490;42.726;23.268;2023-04-04T04:15:44;93754.28;;;8.97;100.00
22647;BME280;11490;42.726;23.268;2023-04-04T04:18:09;93754.28;;;8.97;100.00
22647;BME280;11490;42.726;23.268;2023-04-04T04:20:35;93749.75;;;8.97;100.00
22647;BME280;11490;42.726;23.268;2023-04-04T04:23:00;93755.31;;;8.85;100.00
22647;BME280;11490;42.726;23.268;2023-04-04T04:25:26;93751.03;;;8.79;100.00
22647;BME280;11490;42.726;23.268;2023-04-04T04:27:54;93759.59;;;8.97;100.00
22647;BME280;11490;42.726;23.268;2023-04-04T04:30:20;93769.72;;;9.05;100.00
22647;BME280;11490;42.726;23.268;2023-04-04T04:32:48;93776.63;;;9.06;100.00
22647;BME280;11490;42.726;23.268;2023-04-04T04:35:13;93780.09;;;9.11;100.00
22647;BME280;11490;42.726;23.268;2023-04-04T04:37:39;93776.94;;;9.19;100.00
22647;BME280;11490;42.726;23.268;2023-04-04T04:40:04;93780.09;;;9.11;100.00
22647;BME280;11490;42.726;23.268;2023-04-04T04:42:30;93779.81;;;9.08;100.00
22647;BME280;11490;42.726;23.268;2023-04-04T04:44:56;93781.97;;;9.06;100.00
22647;BME280;11490;42.726;23.268;2023-04-04T04:47:21;93785.69;;;9.10;100.00
22647;BME280;11490;42.726;23.268;2023-04-04T04:49:47;93798.47;;;9.18;100.00
22647;BME280;11490;42.726;23.268;2023-04-04T04:52:13;93798.47;;;9.18;100.00
22647;BME280;11490;42.726;23.268;2023-04-04T04:54:39;93796.63;;;9.29;100.00
22647;BME280;11490;42.726;23.268;2023-04-04T04:57:04;93805.94;;;9.21;100.00
22647;BME280;11490;42.726;23.268;2023-04-04T04:59:30;93808.06;;;9.34;100.00
22647;BME280;11490;42.726;23.268;2023-04-04T05:01:56;93805.38;;;9.24;100.00
22647;BME280;11490;42.726;23.268;2023-04-04T05:04:21;93805.94;;;9.21;100.00
22647;BME280;11490;42.726;23.268;2023-04-04T05:06:47;93816.56;;;9.31;100.00
22647;BME280;11490;42.726;23.268;2023-04-04T05:09:13;93819.50;;;9.35;100.00
22647;BME280;11490;42.726;23.268;2023-04-04T05:11:38;93816.56;;;9.21;100.00
22647;BME280;11490;42.726;23.268;2023-04-04T05:14:04;93821.88;;;9.31;100.00
22647;BME280;11490;42.726;23.268;2023-04-04T05:16:30;93816.03;;;9.24;100.00
22647;BME280;11490;42.726;23.268;2023-04-04T05:18:56;93820.28;;;9.30;100.00
22647;BME280;11490;42.726;23.268;2023-04-04T05:21:21;93819.75;;;9.23;100.00
22647;BME280;11490;42.726;23.268;2023-04-04T05:23:47;93837.03;;;9.31;100.00
22647;BME280;11490;42.726;23.268;2023-04-04T05:26:13;93829.88;;;9.26;100.00
22647;BME280;11490;42.726;23.268;2023-04-04T05:28:38;93826.69;;;9.34;100.00
22647;BME280;11490;42.726;23.268;2023-04-04T05:31:05;93833.09;;;9.43;100.00
22647;BME280;11490;42.726;23.268;2023-04-04T05:33:30;93836.84;;;9.68;100.00
22647;BME280;11490;42.726;23.268;2023-04-04T05:35:56;93836.28;;;9.60;100.00
22647;BME280;11490;42.726;23.268;2023-04-04T05:38:21;93829.91;;;9.56;100.00
22647;BME280;11490;42.726;23.268;2023-04-04T05:40:46;93839.50;;;9.73;100.00
22647;BME280;11490;42.726;23.268;2023-04-04T05:43:12;93844.84;;;9.88;100.00
22647;BME280;11490;42.726;23.268;2023-04-04T05:45:37;93843.75;;;9.79;100.00
22647;BME280;11490;42.726;23.268;2023-04-04T05:48:06;93846.97;;;9.91;100.00
22647;BME280;11490;42.726;23.268;2023-04-04T05:50:31;93858.66;;;10.00;100.00
22647;BME280;11490;42.726;23.268;2023-04-04T05:52:57;93852.28;;;10.01;100.00
22647;BME280;11490;42.726;23.268;2023-04-04T05:55:22;93854.44;;;10.19;100.00
22647;BME280;11490;42.726;23.268;2023-04-04T05:57:49;93849.63;;;10.36;100.00
22647;BME280;11490;42.726;23.268;2023-04-04T06:00:16;93857.63;;;10.31;100.00
22647;BME280;11490;42.726;23.268;2023-04-04T06:02:41;93848.03;;;10.35;100.00
22647;BME280;11490;42.726;23.268;2023-04-04T06:05:07;93852.25;;;10.52;100.00
22647;BME280;11490;42.726;23.268;2023-04-04T06:07:33;93856.50;;;10.68;100.00
22647;BME280;11490;42.726;23.268;2023-04-04T06:09:58;93859.19;;;10.53;100.00
22647;BME280;11490;42.726;23.268;2023-04-04T06:12:23;93865.59;;;10.47;100.00
22647;BME280;11490;42.726;23.268;2023-04-04T06:14:49;93867.22;;;10.37;100.00
22647;BME280;11490;42.726;23.268;2023-04-04T06:17:14;93867.19;;;10.07;100.00
22647;BME280;11490;42.726;23.268;2023-04-04T06:19:40;93889.03;;;9.74;100.00
22647;BME280;11490;42.726;23.268;2023-04-04T06:22:05;93891.56;;;9.23;100.00
22647;BME280;11490;42.726;23.268;2023-04-04T06:24:31;93888.78;;;8.93;100.00
22647;BME280;11490;42.726;23.268;2023-04-04T06:26:56;93898.53;;;8.72;100.00
22647;BME280;11490;42.726;23.268;2023-04-04T06:29:21;93897.63;;;8.51;100.00
22647;BME280;11490;42.726;23.268;2023-04-04T06:31:48;93895.66;;;8.36;100.00
22647;BME280;11490;42.726;23.268;2023-04-04T06:34:14;93902.19;;;8.24;100.00
22647;BME280;11490;42.726;23.268;2023-04-04T06:36:39;93914.84;;;8.11;100.00
22647;BME280;11490;42.726;23.268;2023-04-04T06:39:04;93933.97;;;8.13;100.00
22647;BME280;11490;42.726;23.268;2023-04-04T06:41:30;93924.81;;;7.99;100.00
22647;BME280;11490;42.726;23.268;2023-04-04T06:43:57;93933.81;;;7.93;100.00
22647;BME280;11490;42.726;23.268;2023-04-04T06:46:22;93936.13;;;7.58;100.00
22647;BME280;11490;42.726;23.268;2023-04-04T06:48:47;93938.72;;;7.53;100.00
22647;BME280;11490;42.726;23.268;2023-04-04T06:51:13;93952.06;;;7.58;100.00
22647;BME280;11490;42.726;23.268;2023-04-04T06:53:38;93946.22;;;7.61;100.00
22647;BME280;11490;42.726;23.268;2023-04-04T06:56:04;93944.19;;;7.68;100.00
22647;BME280;11490;42.726;23.268;2023-04-04T06:58:29;93945.53;;;7.70;100.00
22647;BME280;11490;42.726;23.268;2023-04-04T07:00:55;93956.50;;;7.79;100.00
22647;BME280;11490;42.726;23.268;2023-04-04T07:03:24;93973.75;;;7.55;100.00
22647;BME280;11490;42.726;23.268;2023-04-04T07:05:49;93982.47;;;7.28;100.00
22647;BME280;11490;42.726;23.268;2023-04-04T07:08:15;93982.84;;;6.93;100.00
22647;BME280;11490;42.726;23.268;2023-04-04T07:10:42;93998.50;;;6.95;100.00
22647;BME280;11490;42.726;23.268;2023-04-04T07:13:08;93996.53;;;6.69;100.00
22647;BME280;11490;42.726;23.268;2023-04-04T07:15:34;94001.34;;;6.72;100.00
22647;BME280;11490;42.726;23.268;2023-04-04T07:17:59;94012.94;;;6.49;100.00
22647;BME280;11490;42.726;23.268;2023-04-04T07:20:25;94021.91;;;6.65;100.00
22647;BME280;11490;42.726;23.268;2023-04-04T07:22:52;94017.31;;;6.43;100.00
22647;BME280;11490;42.726;23.268;2023-04-04T07:25:18;94032.56;;;6.19;100.00
22647;BME280;11490;42.726;23.268;2023-04-04T07:27:43;94039.19;;;6.34;100.00
22647;BME280;11490;42.726;23.268;2023-04-04T07:30:09;94049.50;;;6.35;100.00
22647;BME280;11490;42.726;23.268;2023-04-04T07:32:35;94055.94;;;6.39;100.00
22647;BME280;11490;42.726;23.268;2023-04-04T07:35:05;94050.31;;;6.36;100.00
22647;BME280;11490;42.726;23.268;2023-04-04T07:37:31;94062.75;;;6.35;100.00
22647;BME280;11490;42.726;23.268;2023-04-04T07:39:57;94068.03;;;6.35;100.00
22647;BME280;11490;42.726;23.268;2023-04-04T07:42:23;94071.91;;;6.44;100.00
22647;BME280;11490;42.726;23.268;2023-04-04T07:44:49;94076.97;;;6.46;100.00
22647;BME280;11490;42.726;23.268;2023-04-04T07:47:14;94084.28;;;6.55;100.00
22647;BME280;11490;42.726;23.268;2023-04-04T07:49:40;94084.25;;;6.39;100.00
22647;BME280;11490;42.726;23.268;2023-04-04T07:52:06;94090.81;;;6.36;100.00
22647;BME280;11490;42.726;23.268;2023-04-04T07:54:33;94079.94;;;6.33;100.00
22647;BME280;11490;42.726;23.268;2023-04-04T07:56:58;94074.47;;;6.39;100.00
22647;BME280;11490;42.726;23.268;2023-04-04T07:59:24;94073.38;;;6.07;100.00
22647;BME280;11490;42.726;23.268;2023-04-04T08:01:49;94071.19;;;6.32;100.00
22647;BME280;11490;42.726;23.268;2023-04-04T08:04:15;94080.25;;;6.36;100.00
22647;BME280;11490;42.726;23.268;2023-04-04T08:06:40;94077.75;;;6.30;100.00
22647;BME280;11490;42.726;23.268;2023-04-04T08:09:06;94083.91;;;6.35;100.00
22647;BME280;11490;42.726;23.268;2023-04-04T08:11:32;94084.72;;;6.19;100.00
22647;BME280;11490;42.726;23.268;2023-04-04T08:13:57;94099.91;;;6.40;100.00
22647;BME280;11490;42.726;23.268;2023-04-04T08:16:22;94108.44;;;6.42;100.00
22647;BME280;11490;42.726;23.268;2023-04-04T08:18:48;94094.13;;;6.43;100.00
22647;BME280;11490;42.726;23.268;2023-04-04T08:21:13;94107.69;;;6.30;100.00
22647;BME280;11490;42.726;23.268;2023-04-04T08:23:39;94101.34;;;6.31;99.95
22647;BME280;11490;42.726;23.268;2023-04-04T08:26:04;94120.75;;;6.37;99.98
22647;BME280;11490;42.726;23.268;2023-04-04T08:28:30;94122.16;;;6.11;99.19
22647;BME280;11490;42.726;23.268;2023-04-04T08:30:55;94137.84;;;6.01;100.00
22647;BME280;11490;42.726;23.268;2023-04-04T08:33:21;94138.97;;;6.05;100.00
22647;BME280;11490;42.726;23.268;2023-04-04T08:35:50;94133.50;;;5.95;97.82
22647;BME280;11490;42.726;23.268;2023-04-04T08:38:15;94143.72;;;6.03;98.29
22647;BME280;11490;42.726;23.268;2023-04-04T08:40:44;94133.28;;;6.13;99.13
22647;BME280;11490;42.726;23.268;2023-04-04T08:43:11;94141.34;;;6.18;98.71
22647;BME280;11490;42.726;23.268;2023-04-04T08:45:40;94145.88;;;6.06;98.27
22647;BME280;11490;42.726;23.268;2023-04-04T08:48:12;94140.13;;;6.09;98.27
22647;BME280;11490;42.726;23.268;2023-04-04T08:50:40;94141.53;;;6.00;97.03
22647;BME280;11490;42.726;23.268;2023-04-04T08:53:10;94156.00;;;6.09;98.17
22647;BME280;11490;42.726;23.268;2023-04-04T08:55:37;94160.13;;;6.05;98.44
22647;BME280;11490;42.726;23.268;2023-04-04T08:58:05;94133.25;;;5.85;97.88
22647;BME280;11490;42.726;23.268;2023-04-04T09:00:31;94132.38;;;5.67;97.47
22647;BME280;11490;42.726;23.268;2023-04-04T09:03:13;94173.31;;;5.76;97.47
22647;BME280;11490;42.726;23.268;2023-04-04T09:05:40;94169.50;;;5.84;98.84
22647;BME280;11490;42.726;23.268;2023-04-04T09:08:08;94172.50;;;5.76;97.78
22647;BME280;11490;42.726;23.268;2023-04-04T09:10:35;94172.84;;;5.79;97.96
22647;BME280;11490;42.726;23.268;2023-04-04T09:13:01;94179.84;;;5.86;98.88
22647;BME280;11490;42.726;23.268;2023-04-04T09:15:27;94176.13;;;6.10;96.70
22647;BME280;11490;42.726;23.268;2023-04-04T09:17:53;94152.78;;;6.07;95.67
22647;BME280;11490;42.726;23.268;2023-04-04T09:20:41;94186.34;;;6.18;96.59
22647;BME280;11490;42.726;23.268;2023-04-04T09:23:11;94176.66;;;5.95;95.79
22647;BME280;11490;42.726;23.268;2023-04-04T09:25:43;94165.72;;;5.92;95.82
22647;BME280;11490;42.726;23.268;2023-04-04T09:28:09;94177.25;;;5.62;95.43
22647;BME280;11490;42.726;23.268;2023-04-04T09:30:35;94180.56;;;5.69;97.04
22647;BME280;11490;42.726;23.268;2023-04-04T09:33:04;94192.84;;;5.75;97.76
22647;BME280;11490;42.726;23.268;2023-04-04T09:35:36;94191.25;;;5.74;97.78
22647;BME280;11490;42.726;23.268;2023-04-04T09:38:04;94188.81;;;5.85;96.93
22647;BME280;11490;42.726;23.268;2023-04-04T09:40:30;94194.81;;;5.80;97.44
22647;BME280;11490;42.726;23.268;2023-04-04T09:42:59;94183.88;;;5.76;97.71
22647;BME280;11490;42.726;23.268;2023-04-04T09:45:25;94198.16;;;5.75;97.08
22647;BME280;11490;42.726;23.268;2023-04-04T09:47:50;94196.75;;;5.85;97.05
22647;BME280;11490;42.726;23.268;2023-04-04T09:50:24;94185.84;;;5.58;96.82
22647;BME280;11490;42.726;23.268;2023-04-04T09:52:50;94199.41;;;5.73;97.85
22647;BME280;11490;42.726;23.268;2023-04-04T09:55:17;94194.47;;;5.76;98.12
22647;BME280;11490;42.726;23.268;2023-04-04T09:57:42;94203.22;;;5.89;97.48
22647;BME280;11490;42.726;23.268;2023-04-04T10:00:10;94200.22;;;5.73;95.82
22647;BME280;11490;42.726;23.268;2023-04-04T10:02:38;94200.34;;;5.78;97.01
22647;BME280;11490;42.726;23.268;2023-04-04T10:05:09;94207.00;;;5.69;96.40
22647;BME280;11490;42.726;23.268;2023-04-04T10:07:37;94200.13;;;5.80;96.81
22647;BME280;11490;42.726;23.268;2023-04-04T10:10:07;94196.75;;;5.73;95.96
22647;BME280;11490;42.726;23.268;2023-04-04T10:12:34;94207.13;;;5.51;96.12
22647;BME280;11490;42.726;23.268;2023-04-04T10:15:01;94204.75;;;5.26;98.28
22647;BME280;11490;42.726;23.268;2023-04-04T10:17:40;94199.22;;;5.63;98.21
22647;BME280;11490;42.726;23.268;2023-04-04T10:20:09;94221.28;;;5.80;97.68
22647;BME280;11490;42.726;23.268;2023-04-04T10:22:36;94211.53;;;5.57;96.25
22647;BME280;11490;42.726;23.268;2023-04-04T10:25:03;94209.41;;;5.82;97.64
22647;BME280;11490;42.726;23.268;2023-04-04T10:27:29;94219.66;;;5.91;96.72
22647;BME280;11490;42.726;23.268;2023-04-04T10:29:55;94213.34;;;5.92;97.95
22647;BME280;11490;42.726;23.268;2023-04-04T10:32:37;94219.53;;;5.86;95.78
22647;BME280;11490;42.726;23.268;2023-04-04T10:35:08;94239.09;;;6.08;95.32
22647;BME280;11490;42.726;23.268;2023-04-04T10:37:43;94224.91;;;6.14;96.46
22647;BME280;11490;42.726;23.268;2023-04-04T10:42:39;94241.94;;;6.18;95.12
22647;BME280;11490;42.726;23.268;2023-04-04T10:45:08;94243.16;;;6.27;96.42
22647;BME280;11490;42.726;23.268;2023-04-04T10:47:38;94244.47;;;6.25;95.26
22647;BME280;11490;42.726;23.268;2023-04-04T10:50:05;94239.97;;;6.13;94.89
22647;BME280;11490;42.726;23.268;2023-04-04T10:52:32;94235.88;;;5.59;94.68
22647;BME280;11490;42.726;23.268;2023-04-04T10:55:01;94239.44;;;6.00;97.05
22647;BME280;11490;42.726;23.268;2023-04-04T10:57:29;94250.84;;;5.89;97.89
22647;BME280;11490;42.726;23.268;2023-04-04T10:59:59;94252.00;;;5.93;97.76
22647;BME280;11490;42.726;23.268;2023-04-04T11:02:56;94254.88;;;5.91;98.07
22647;BME280;11490;42.726;23.268;2023-04-04T11:05:38;94255.41;;;5.81;97.88
22647;BME280;11490;42.726;23.268;2023-04-04T11:08:15;94263.81;;;5.67;97.25
22647;BME280;11490;42.726;23.268;2023-04-04T11:10:48;94259.13;;;5.80;98.77
22647;BME280;11490;42.726;23.268;2023-04-04T11:13:33;94256.94;;;5.89;98.68
22647;BME280;11490;42.726;23.268;2023-04-04T11:16:20;94264.88;;;5.77;98.63
22647;BME280;11490;42.726;23.268;2023-04-04T11:18:46;94256.69;;;5.67;99.36
22647;BME280;11490;42.726;23.268;2023-04-04T11:21:19;94268.78;;;5.87;99.52
22647;BME280;11490;42.726;23.268;2023-04-04T11:26:17;94279.81;;;6.07;95.43
22647;BME280;11490;42.726;23.268;2023-04-04T11:29:00;94277.75;;;6.09;95.35
22647;BME280;11490;42.726;23.268;2023-04-04T11:31:39;94273.94;;;5.81;94.50
22647;BME280;11490;42.726;23.268;2023-04-04T11:34:12;94290.88;;;5.80;96.59
22647;BME280;11490;42.726;23.268;2023-04-04T11:39:06;94289.72;;;5.76;93.86
22647;BME280;11490;42.726;23.268;2023-04-04T11:42:11;94287.44;;;5.92;93.79
22647;BME280;11490;42.726;23.268;2023-04-04T11:45:00;94286.97;;;5.71;93.53
22647;BME280;11490;42.726;23.268;2023-04-04T11:47:27;94287.16;;;5.81;94.88
22647;BME280;11490;42.726;23.268;2023-04-04T11:49:54;94285.34;;;5.70;93.32
22647;BME280;11490;42.726;23.268;2023-04-04T11:52:20;94289.81;;;5.58;93.76
22647;BME280;11490;42.726;23.268;2023-04-04T11:54:48;94288.09;;;5.52;93.36
22647;BME280;11490;42.726;23.268;2023-04-04T11:57:15;94301.44;;;5.57;94.31
22647;BME280;11490;42.726;23.268;2023-04-04T11:59:42;94296.59;;;5.54;93.20
22647;BME280;11490;42.726;23.268;2023-04-04T12:02:08;94296.72;;;5.71;93.70
22647;BME280;11490;42.726;23.268;2023-04-04T12:04:35;94298.91;;;5.62;93.84
22647;BME280;11490;42.726;23.268;2023-04-04T12:07:02;94283.78;;;5.28;94.04
22647;BME280;11490;42.726;23.268;2023-04-04T12:09:32;94290.94;;;5.51;93.79
22647;BME280;11490;42.726;23.268;2023-04-04T12:11:58;94295.88;;;5.24;93.47
22647;BME280;11490;42.726;23.268;2023-04-04T12:14:24;94295.00;;;5.53;94.58
22647;BME280;11490;42.726;23.268;2023-04-04T12:16:55;94287.84;;;5.65;93.14
22647;BME280;11490;42.726;23.268;2023-04-04T12:19:22;94290.03;;;5.33;93.03
22647;BME280;11490;42.726;23.268;2023-04-04T12:21:49;94295.56;;;5.55;93.33
22647;BME280;11490;42.726;23.268;2023-04-04T12:24:15;94302.72;;;5.78;93.21
22647;BME280;11490;42.726;23.268;2023-04-04T12:26:42;94303.03;;;5.58;93.65
22647;BME280;11490;42.726;23.268;2023-04-04T12:29:10;94308.56;;;5.68;93.98
22647;BME280;11490;42.726;23.268;2023-04-04T12:31:37;94305.13;;;5.79;93.48
22647;BME280;11490;42.726;23.268;2023-04-04T12:34:03;94301.78;;;5.72;92.89
22647;BME280;11490;42.726;23.268;2023-04-04T12:36:29;94298.44;;;5.65;92.49
22647;BME280;11490;42.726;23.268;2023-04-04T12:38:56;94299.25;;;5.77;93.47
22647;BME280;11490;42.726;23.268;2023-04-04T12:41:22;94307.44;;;5.64;93.79
22647;BME280;11490;42.726;23.268;2023-04-04T12:43:48;94306.38;;;5.54;94.74
22647;BME280;11490;42.726;23.268;2023-04-04T12:46:13;94313.59;;;5.58;95.15
22647;BME280;11490;42.726;23.268;2023-04-04T12:48:40;94319.97;;;5.16;93.92
22647;BME280;11490;42.726;23.268;2023-04-04T12:51:05;94324.34;;;5.22;94.59
22647;BME280;11490;42.726;23.268;2023-04-04T12:53:32;94330.56;;;5.16;94.34
22647;BME280;11490;42.726;23.268;2023-04-04T12:56:02;94321.97;;;5.32;95.37
22647;BME280;11490;42.726;23.268;2023-04-04T12:58:29;94322.09;;;5.37;95.37
22647;BME280;11490;42.726;23.268;2023-04-04T13:00:58;94324.41;;;5.45;95.07
22647;BME280;11490;42.726;23.268;2023-04-04T13:03:26;94319.00;;;5.40;95.52